Pagina principală
METAR-TAF:

METAR-TAF

Aeroporturi :

Koné, Noua Caledonie

Latitudine: 21-03-12S, longitudine: 164-50-18E, elevație: 7 m

METAR: lipsă

Ora: 21:42 (10:42 UTC)

Prognoză

Raportul a fost făcut în urmă cu 11 ore și 42 de minute, la 23:00 UTC
Prognoză valabilă de la 18 ora 00 UTC la 18 ora 24 UTC
Vânt 8 kt de la Est
Vizibilitate de 10 km sau mai mult
Nori puțini la o înălțime de 5000 picior

TAF: NWWD 172300Z 1800/1824 08008KT 9999 FEW050

Observații și prognoze meteo pentru peste 4.000 de aeroporturi (rapoarte METAR și TAF).

Stațiile disponibile sunt reprezentate pe hartă prin puncte galbene și roșii.

Țineți indicatorul mouse-ului pe punctul dorit pentru a vedea denumirea stației.

Apoi, faceți clic pentru a vedea observațiile și prognozele meteorologice.

Pentru a schimba harta: Pentru mărire, faceți clic pe butoanele verzi cu cruce neagră; pentru micșorare, pe butonul verde cu o liniuță; pentru hărți învecinate, pe săgețile verzi.


METAR-TAF: